createdAt,value
2023-05-19T00:07:06.263Z,60
2023-05-19T00:27:06.227Z,60.7
2023-05-19T00:47:07.357Z,61
2023-05-19T01:07:06.749Z,61.2
2023-05-19T01:27:06.472Z,63.5
2023-05-19T01:47:06.721Z,64.3
2023-05-19T02:07:06.801Z,66.3
2023-05-19T02:27:06.577Z,68.4
2023-05-19T02:47:06.698Z,71.7
2023-05-19T03:07:06.716Z,73.7
2023-05-19T03:27:06.656Z,75.3
2023-05-19T03:47:06.782Z,75.8
2023-05-19T04:07:06.795Z,74.7
2023-05-19T04:27:06.793Z,75.6
2023-05-19T04:47:06.996Z,72.8
2023-05-19T05:07:06.908Z,68.3
2023-05-19T05:27:06.921Z,63.2
2023-05-19T05:47:06.960Z,61.2
2023-05-19T06:07:06.983Z,59.7
2023-05-19T06:27:07.015Z,58.3
2023-05-19T06:47:07.259Z,56.2
2023-05-19T07:07:07.061Z,53.6
2023-05-19T07:27:07.223Z,51.7
2023-05-19T07:47:07.262Z,51.5
2023-05-19T08:07:07.186Z,48.9
2023-05-19T08:27:07.224Z,48.5
2023-05-19T08:47:07.298Z,45.7
2023-05-19T09:07:07.191Z,45.8
2023-05-19T09:27:07.346Z,43.1
2023-05-19T09:47:07.358Z,41.9
2023-05-19T10:07:07.325Z,39.7
2023-05-19T10:27:07.505Z,40.3
2023-05-19T10:47:07.533Z,41.1
2023-05-19T11:07:07.508Z,39
2023-05-19T11:27:07.386Z,35.9
2023-05-19T11:47:07.536Z,34.9
2023-05-19T12:07:07.551Z,33.1
2023-05-19T12:27:07.587Z,32.9
2023-05-19T12:47:07.602Z,33.1
2023-05-19T13:07:07.684Z,36.7
2023-05-19T13:27:07.528Z,36
2023-05-19T13:47:07.698Z,31.7
2023-05-19T14:07:07.739Z,32.1
2023-05-19T14:47:07.839Z,36.4
2023-05-19T15:07:10.572Z,38.5
2023-05-19T15:27:07.770Z,40.7
2023-05-19T15:47:07.806Z,42
2023-05-19T16:07:07.861Z,44.5
2023-05-19T16:27:07.838Z,46
2023-05-19T16:47:07.743Z,46.5
2023-05-19T17:07:08.248Z,48
2023-05-19T17:27:08.182Z,49.5
2023-05-19T17:47:07.927Z,51.5
2023-05-19T18:07:08.020Z,53
2023-05-19T18:27:08.028Z,55.3
2023-05-19T18:47:07.960Z,57.6
2023-05-19T19:07:08.047Z,60
2023-05-19T19:27:08.184Z,61.6
2023-05-19T19:47:08.538Z,63.4
2023-05-19T20:07:08.150Z,64.8
2023-05-19T20:27:08.760Z,65.7
2023-05-19T20:47:08.302Z,66.5
2023-05-19T21:07:08.278Z,67.3
2023-05-19T21:27:08.374Z,67.8
2023-05-19T21:47:08.358Z,67.6
2023-05-19T22:07:08.381Z,68
2023-05-19T22:27:08.460Z,68.6
2023-05-19T22:47:08.327Z,69.2
2023-05-19T23:07:08.383Z,69.6
2023-05-19T23:27:08.406Z,71
2023-05-19T23:47:08.653Z,72.5
